sensor_id;sensor_type;location;lat;lon;timestamp;P1;durP1;ratioP1;P2;durP2;ratioP2
56242;SDS011;42155;53.096;23.226;2023-02-03T00:01:37;8.98;;;3.35;;
56242;SDS011;42155;53.096;23.226;2023-02-03T00:03:38;5.93;;;2.63;;
56242;SDS011;42155;53.096;23.226;2023-02-03T00:05:38;7.30;;;3.03;;
56242;SDS011;42155;53.096;23.226;2023-02-03T00:07:40;7.30;;;3.08;;
56242;SDS011;42155;53.096;23.226;2023-02-03T00:09:40;8.68;;;3.10;;
56242;SDS011;42155;53.096;23.226;2023-02-03T00:11:41;8.43;;;3.00;;
56242;SDS011;42155;53.096;23.226;2023-02-03T00:13:41;7.20;;;2.80;;
56242;SDS011;42155;53.096;23.226;2023-02-03T00:15:41;8.43;;;3.83;;
56242;SDS011;42155;53.096;23.226;2023-02-03T00:17:42;7.03;;;3.00;;
56242;SDS011;42155;53.096;23.226;2023-02-03T00:19:42;7.55;;;2.90;;
56242;SDS011;42155;53.096;23.226;2023-02-03T00:21:42;6.95;;;3.08;;
56242;SDS011;42155;53.096;23.226;2023-02-03T00:23:43;6.80;;;3.17;;
56242;SDS011;42155;53.096;23.226;2023-02-03T00:25:43;6.47;;;3.30;;
56242;SDS011;42155;53.096;23.226;2023-02-03T00:27:43;7.35;;;2.97;;
56242;SDS011;42155;53.096;23.226;2023-02-03T00:29:44;5.80;;;2.67;;
56242;SDS011;42155;53.096;23.226;2023-02-03T00:31:44;5.65;;;2.65;;
56242;SDS011;42155;53.096;23.226;2023-02-03T00:33:44;4.50;;;2.35;;
56242;SDS011;42155;53.096;23.226;2023-02-03T00:35:45;6.22;;;2.25;;
56242;SDS011;42155;53.096;23.226;2023-02-03T00:37:55;6.30;;;2.63;;
56242;SDS011;42155;53.096;23.226;2023-02-03T00:39:56;6.50;;;2.28;;
56242;SDS011;42155;53.096;23.226;2023-02-03T00:41:56;5.57;;;2.63;;
56242;SDS011;42155;53.096;23.226;2023-02-03T00:43:56;6.88;;;2.78;;
56242;SDS011;42155;53.096;23.226;2023-02-03T00:45:57;9.13;;;2.90;;
56242;SDS011;42155;53.096;23.226;2023-02-03T00:47:57;7.53;;;2.97;;
56242;SDS011;42155;53.096;23.226;2023-02-03T00:49:58;4.57;;;2.58;;
56242;SDS011;42155;53.096;23.226;2023-02-03T00:51:58;5.53;;;2.50;;
56242;SDS011;42155;53.096;23.226;2023-02-03T00:53:58;6.13;;;2.40;;
56242;SDS011;42155;53.096;23.226;2023-02-03T00:55:59;5.18;;;2.40;;
56242;SDS011;42155;53.096;23.226;2023-02-03T00:57:59;7.30;;;2.67;;
56242;SDS011;42155;53.096;23.226;2023-02-03T01:00:00;7.07;;;2.83;;
56242;SDS011;42155;53.096;23.226;2023-02-03T01:02:00;7.40;;;2.70;;
56242;SDS011;42155;53.096;23.226;2023-02-03T01:04:00;5.50;;;2.60;;
56242;SDS011;42155;53.096;23.226;2023-02-03T01:06:14;6.35;;;2.95;;
56242;SDS011;42155;53.096;23.226;2023-02-03T01:08:16;3.40;;;2.00;;
56242;SDS011;42155;53.096;23.226;2023-02-03T01:10:17;4.57;;;2.22;;
56242;SDS011;42155;53.096;23.226;2023-02-03T01:12:17;6.70;;;2.70;;
56242;SDS011;42155;53.096;23.226;2023-02-03T01:14:17;5.35;;;2.10;;
56242;SDS011;42155;53.096;23.226;2023-02-03T01:16:18;4.00;;;2.50;;
56242;SDS011;42155;53.096;23.226;2023-02-03T01:18:20;5.68;;;2.33;;
56242;SDS011;42155;53.096;23.226;2023-02-03T01:20:20;4.10;;;2.28;;
56242;SDS011;42155;53.096;23.226;2023-02-03T01:22:21;4.15;;;2.20;;
56242;SDS011;42155;53.096;23.226;2023-02-03T01:24:21;3.97;;;2.38;;
56242;SDS011;42155;53.096;23.226;2023-02-03T01:26:22;5.78;;;2.60;;
56242;SDS011;42155;53.096;23.226;2023-02-03T01:28:23;8.68;;;3.10;;
56242;SDS011;42155;53.096;23.226;2023-02-03T01:30:23;6.00;;;2.50;;
56242;SDS011;42155;53.096;23.226;2023-02-03T01:32:23;7.50;;;2.60;;
56242;SDS011;42155;53.096;23.226;2023-02-03T01:34:24;5.63;;;2.60;;
56242;SDS011;42155;53.096;23.226;2023-02-03T01:36:25;6.30;;;2.70;;
56242;SDS011;42155;53.096;23.226;2023-02-03T01:38:27;7.20;;;2.65;;
56242;SDS011;42155;53.096;23.226;2023-02-03T01:40:27;6.55;;;2.83;;
56242;SDS011;42155;53.096;23.226;2023-02-03T01:42:29;6.32;;;2.97;;
56242;SDS011;42155;53.096;23.226;2023-02-03T01:46:47;5.22;;;2.55;;
56242;SDS011;42155;53.096;23.226;2023-02-03T01:48:49;8.13;;;3.28;;
56242;SDS011;42155;53.096;23.226;2023-02-03T01:50:50;5.80;;;3.00;;
56242;SDS011;42155;53.096;23.226;2023-02-03T01:52:52;5.43;;;2.75;;
56242;SDS011;42155;53.096;23.226;2023-02-03T01:54:57;7.40;;;2.78;;
56242;SDS011;42155;53.096;23.226;2023-02-03T01:57:02;4.82;;;2.33;;
56242;SDS011;42155;53.096;23.226;2023-02-03T01:59:05;4.38;;;2.30;;
56242;SDS011;42155;53.096;23.226;2023-02-03T02:01:05;4.20;;;2.38;;
56242;SDS011;42155;53.096;23.226;2023-02-03T02:03:06;6.35;;;2.90;;
56242;SDS011;42155;53.096;23.226;2023-02-03T02:05:22;4.95;;;2.30;;
56242;SDS011;42155;53.096;23.226;2023-02-03T02:07:26;9.32;;;2.53;;
56242;SDS011;42155;53.096;23.226;2023-02-03T02:09:28;4.22;;;2.38;;
56242;SDS011;42155;53.096;23.226;2023-02-03T02:11:29;7.38;;;2.45;;
56242;SDS011;42155;53.096;23.226;2023-02-03T02:13:30;5.25;;;2.67;;
56242;SDS011;42155;53.096;23.226;2023-02-03T02:27:25;6.20;;;3.05;;
56242;SDS011;42155;53.096;23.226;2023-02-03T02:32:17;4.72;;;2.67;;
56242;SDS011;42155;53.096;23.226;2023-02-03T02:38:54;4.72;;;3.00;;
56242;SDS011;42155;53.096;23.226;2023-02-03T02:43:05;9.60;;;2.80;;
56242;SDS011;42155;53.096;23.226;2023-02-03T02:45:14;7.75;;;2.70;;
56242;SDS011;42155;53.096;23.226;2023-02-03T02:47:21;4.47;;;2.42;;
56242;SDS011;42155;53.096;23.226;2023-02-03T02:49:29;6.28;;;2.35;;
56242;SDS011;42155;53.096;23.226;2023-02-03T02:51:43;9.90;;;2.97;;
56242;SDS011;42155;53.096;23.226;2023-02-03T02:53:55;5.47;;;2.65;;
56242;SDS011;42155;53.096;23.226;2023-02-03T02:56:02;8.00;;;2.95;;
56242;SDS011;42155;53.096;23.226;2023-02-03T02:58:06;4.10;;;2.60;;
56242;SDS011;42155;53.096;23.226;2023-02-03T03:00:10;4.65;;;2.70;;
56242;SDS011;42155;53.096;23.226;2023-02-03T03:02:11;4.53;;;2.70;;
56242;SDS011;42155;53.096;23.226;2023-02-03T03:04:12;4.13;;;2.53;;
56242;SDS011;42155;53.096;23.226;2023-02-03T03:06:20;6.28;;;2.40;;
56242;SDS011;42155;53.096;23.226;2023-02-03T03:08:30;4.50;;;2.60;;
56242;SDS011;42155;53.096;23.226;2023-02-03T03:10:41;3.75;;;2.40;;
56242;SDS011;42155;53.096;23.226;2023-02-03T03:12:46;8.40;;;3.00;;
56242;SDS011;42155;53.096;23.226;2023-02-03T03:14:53;5.85;;;2.58;;
56242;SDS011;42155;53.096;23.226;2023-02-03T03:17:17;5.05;;;2.55;;
56242;SDS011;42155;53.096;23.226;2023-02-03T03:19:43;8.65;;;2.90;;
56242;SDS011;42155;53.096;23.226;2023-02-03T03:21:58;6.25;;;2.80;;
56242;SDS011;42155;53.096;23.226;2023-02-03T03:24:06;6.85;;;2.78;;
56242;SDS011;42155;53.096;23.226;2023-02-03T03:26:21;3.83;;;2.50;;
56242;SDS011;42155;53.096;23.226;2023-02-03T03:28:36;6.97;;;2.78;;
56242;SDS011;42155;53.096;23.226;2023-02-03T03:30:44;6.70;;;2.72;;
56242;SDS011;42155;53.096;23.226;2023-02-03T03:32:44;4.45;;;2.67;;
56242;SDS011;42155;53.096;23.226;2023-02-03T03:34:45;5.15;;;2.60;;
56242;SDS011;42155;53.096;23.226;2023-02-03T03:36:47;6.50;;;3.00;;
56242;SDS011;42155;53.096;23.226;2023-02-03T03:39:34;4.50;;;2.58;;
56242;SDS011;42155;53.096;23.226;2023-02-03T03:43:30;5.68;;;2.80;;
56242;SDS011;42155;53.096;23.226;2023-02-03T03:45:34;6.90;;;2.95;;
56242;SDS011;42155;53.096;23.226;2023-02-03T03:47:43;4.57;;;2.80;;
56242;SDS011;42155;53.096;23.226;2023-02-03T03:49:52;5.65;;;2.50;;
56242;SDS011;42155;53.096;23.226;2023-02-03T03:51:58;6.70;;;2.80;;
56242;SDS011;42155;53.096;23.226;2023-02-03T03:54:04;5.63;;;2.80;;
56242;SDS011;42155;53.096;23.226;2023-02-03T03:56:08;7.10;;;2.60;;
56242;SDS011;42155;53.096;23.226;2023-02-03T03:58:13;5.47;;;2.90;;
56242;SDS011;42155;53.096;23.226;2023-02-03T04:00:18;4.13;;;2.45;;
56242;SDS011;42155;53.096;23.226;2023-02-03T04:02:20;4.55;;;2.80;;
56242;SDS011;42155;53.096;23.226;2023-02-03T04:04:22;6.43;;;2.78;;
56242;SDS011;42155;53.096;23.226;2023-02-03T04:06:25;5.03;;;2.47;;
56242;SDS011;42155;53.096;23.226;2023-02-03T04:08:25;5.13;;;2.45;;
56242;SDS011;42155;53.096;23.226;2023-02-03T04:10:29;6.32;;;2.63;;
56242;SDS011;42155;53.096;23.226;2023-02-03T04:12:34;4.57;;;2.72;;
56242;SDS011;42155;53.096;23.226;2023-02-03T04:14:35;3.70;;;2.35;;
56242;SDS011;42155;53.096;23.226;2023-02-03T04:16:36;4.50;;;2.20;;
56242;SDS011;42155;53.096;23.226;2023-02-03T04:18:36;4.40;;;2.50;;
56242;SDS011;42155;53.096;23.226;2023-02-03T04:20:36;5.57;;;2.33;;
56242;SDS011;42155;53.096;23.226;2023-02-03T04:22:37;3.45;;;2.30;;
56242;SDS011;42155;53.096;23.226;2023-02-03T04:24:37;3.47;;;2.28;;
56242;SDS011;42155;53.096;23.226;2023-02-03T04:26:37;4.35;;;2.40;;
56242;SDS011;42155;53.096;23.226;2023-02-03T04:28:38;3.75;;;2.30;;
56242;SDS011;42155;53.096;23.226;2023-02-03T04:30:38;4.57;;;2.22;;
56242;SDS011;42155;53.096;23.226;2023-02-03T04:32:39;5.93;;;2.40;;
56242;SDS011;42155;53.096;23.226;2023-02-03T04:34:39;6.07;;;2.45;;
56242;SDS011;42155;53.096;23.226;2023-02-03T04:36:40;9.57;;;2.78;;
56242;SDS011;42155;53.096;23.226;2023-02-03T04:38:40;5.15;;;2.35;;
56242;SDS011;42155;53.096;23.226;2023-02-03T04:40:40;5.15;;;2.53;;
56242;SDS011;42155;53.096;23.226;2023-02-03T04:42:41;4.82;;;2.55;;
56242;SDS011;42155;53.096;23.226;2023-02-03T04:44:41;6.25;;;2.80;;
56242;SDS011;42155;53.096;23.226;2023-02-03T04:46:41;5.10;;;2.35;;
56242;SDS011;42155;53.096;23.226;2023-02-03T04:48:42;5.45;;;2.58;;
56242;SDS011;42155;53.096;23.226;2023-02-03T04:50:42;3.65;;;2.47;;
56242;SDS011;42155;53.096;23.226;2023-02-03T04:52:42;3.60;;;2.47;;
56242;SDS011;42155;53.096;23.226;2023-02-03T04:54:43;4.00;;;2.65;;
56242;SDS011;42155;53.096;23.226;2023-02-03T04:56:43;7.13;;;2.33;;
56242;SDS011;42155;53.096;23.226;2023-02-03T04:58:43;4.30;;;2.30;;
56242;SDS011;42155;53.096;23.226;2023-02-03T05:00:44;7.97;;;2.30;;
56242;SDS011;42155;53.096;23.226;2023-02-03T05:02:44;4.93;;;2.42;;
56242;SDS011;42155;53.096;23.226;2023-02-03T05:04:44;6.75;;;2.50;;
56242;SDS011;42155;53.096;23.226;2023-02-03T05:06:45;5.10;;;2.65;;
56242;SDS011;42155;53.096;23.226;2023-02-03T05:08:45;6.35;;;2.60;;
56242;SDS011;42155;53.096;23.226;2023-02-03T05:10:45;3.63;;;2.28;;
56242;SDS011;42155;53.096;23.226;2023-02-03T05:12:46;4.18;;;2.58;;
56242;SDS011;42155;53.096;23.226;2023-02-03T05:14:46;3.83;;;2.45;;
56242;SDS011;42155;53.096;23.226;2023-02-03T05:16:46;3.53;;;2.47;;
56242;SDS011;42155;53.096;23.226;2023-02-03T05:18:47;6.70;;;3.10;;
56242;SDS011;42155;53.096;23.226;2023-02-03T05:20:47;5.55;;;2.83;;
56242;SDS011;42155;53.096;23.226;2023-02-03T05:22:47;4.82;;;2.78;;
56242;SDS011;42155;53.096;23.226;2023-02-03T05:24:48;6.90;;;2.95;;
56242;SDS011;42155;53.096;23.226;2023-02-03T05:26:48;5.75;;;2.42;;
56242;SDS011;42155;53.096;23.226;2023-02-03T05:28:48;6.47;;;3.20;;
56242;SDS011;42155;53.096;23.226;2023-02-03T05:30:49;8.30;;;2.90;;
56242;SDS011;42155;53.096;23.226;2023-02-03T05:32:49;8.18;;;3.22;;
56242;SDS011;42155;53.096;23.226;2023-02-03T05:34:49;6.32;;;2.88;;
56242;SDS011;42155;53.096;23.226;2023-02-03T05:36:50;6.68;;;3.13;;
56242;SDS011;42155;53.096;23.226;2023-02-03T05:38:50;4.70;;;2.78;;
56242;SDS011;42155;53.096;23.226;2023-02-03T05:40:51;4.05;;;2.67;;
56242;SDS011;42155;53.096;23.226;2023-02-03T05:42:51;4.10;;;2.35;;
56242;SDS011;42155;53.096;23.226;2023-02-03T05:44:52;5.15;;;2.97;;
56242;SDS011;42155;53.096;23.226;2023-02-03T05:46:52;5.45;;;2.83;;
56242;SDS011;42155;53.096;23.226;2023-02-03T05:48:54;5.00;;;3.17;;
56242;SDS011;42155;53.096;23.226;2023-02-03T05:50:54;5.60;;;2.92;;
56242;SDS011;42155;53.096;23.226;2023-02-03T05:52:55;5.20;;;2.75;;
56242;SDS011;42155;53.096;23.226;2023-02-03T05:54:55;5.95;;;3.08;;
56242;SDS011;42155;53.096;23.226;2023-02-03T05:56:55;6.30;;;3.38;;
56242;SDS011;42155;53.096;23.226;2023-02-03T05:58:56;7.53;;;3.50;;
56242;SDS011;42155;53.096;23.226;2023-02-03T06:00:56;7.20;;;3.30;;
56242;SDS011;42155;53.096;23.226;2023-02-03T06:02:58;8.00;;;3.42;;
56242;SDS011;42155;53.096;23.226;2023-02-03T06:04:59;8.18;;;3.00;;
56242;SDS011;42155;53.096;23.226;2023-02-03T06:06:59;7.75;;;3.78;;
56242;SDS011;42155;53.096;23.226;2023-02-03T06:09:00;5.53;;;3.22;;
56242;SDS011;42155;53.096;23.226;2023-02-03T06:11:02;6.10;;;3.40;;
56242;SDS011;42155;53.096;23.226;2023-02-03T06:13:12;5.07;;;2.80;;
56242;SDS011;42155;53.096;23.226;2023-02-03T06:15:14;5.43;;;2.50;;
56242;SDS011;42155;53.096;23.226;2023-02-03T06:17:15;5.13;;;2.92;;
56242;SDS011;42155;53.096;23.226;2023-02-03T06:19:15;5.88;;;3.17;;
56242;SDS011;42155;53.096;23.226;2023-02-03T06:21:15;5.65;;;3.08;;
56242;SDS011;42155;53.096;23.226;2023-02-03T06:23:16;5.32;;;2.80;;
56242;SDS011;42155;53.096;23.226;2023-02-03T06:25:16;6.07;;;2.78;;
56242;SDS011;42155;53.096;23.226;2023-02-03T06:27:17;5.50;;;2.85;;
56242;SDS011;42155;53.096;23.226;2023-02-03T06:29:17;7.75;;;3.22;;
56242;SDS011;42155;53.096;23.226;2023-02-03T06:31:18;6.05;;;3.17;;
56242;SDS011;42155;53.096;23.226;2023-02-03T06:33:18;7.72;;;3.78;;
56242;SDS011;42155;53.096;23.226;2023-02-03T06:35:19;14.13;;;4.88;;
56242;SDS011;42155;53.096;23.226;2023-02-03T06:37:19;13.00;;;4.95;;
56242;SDS011;42155;53.096;23.226;2023-02-03T06:39:20;13.23;;;5.38;;
56242;SDS011;42155;53.096;23.226;2023-02-03T06:41:20;13.60;;;5.80;;
56242;SDS011;42155;53.096;23.226;2023-02-03T06:43:20;9.45;;;4.07;;
56242;SDS011;42155;53.096;23.226;2023-02-03T06:45:21;12.48;;;4.97;;
56242;SDS011;42155;53.096;23.226;2023-02-03T06:47:21;19.20;;;6.07;;
56242;SDS011;42155;53.096;23.226;2023-02-03T06:49:21;16.05;;;6.13;;
56242;SDS011;42155;53.096;23.226;2023-02-03T06:51:22;14.32;;;5.25;;
56242;SDS011;42155;53.096;23.226;2023-02-03T06:53:22;13.65;;;5.03;;
56242;SDS011;42155;53.096;23.226;2023-02-03T06:55:22;12.88;;;4.47;;
56242;SDS011;42155;53.096;23.226;2023-02-03T06:57:23;14.52;;;4.90;;
56242;SDS011;42155;53.096;23.226;2023-02-03T06:59:23;11.05;;;4.53;;
56242;SDS011;42155;53.096;23.226;2023-02-03T07:01:24;8.85;;;4.20;;
56242;SDS011;42155;53.096;23.226;2023-02-03T07:03:24;13.65;;;5.90;;
56242;SDS011;42155;53.096;23.226;2023-02-03T07:05:24;13.10;;;5.50;;
56242;SDS011;42155;53.096;23.226;2023-02-03T07:07:25;11.95;;;4.90;;
56242;SDS011;42155;53.096;23.226;2023-02-03T07:09:25;15.18;;;5.10;;
56242;SDS011;42155;53.096;23.226;2023-02-03T07:11:26;10.10;;;3.90;;
56242;SDS011;42155;53.096;23.226;2023-02-03T07:13:26;10.73;;;3.70;;
56242;SDS011;42155;53.096;23.226;2023-02-03T07:15:27;10.15;;;3.55;;
56242;SDS011;42155;53.096;23.226;2023-02-03T07:17:27;9.73;;;3.67;;
56242;SDS011;42155;53.096;23.226;2023-02-03T07:19:27;9.70;;;3.47;;
56242;SDS011;42155;53.096;23.226;2023-02-03T07:21:28;7.55;;;3.42;;
56242;SDS011;42155;53.096;23.226;2023-02-03T07:23:28;9.35;;;3.20;;
56242;SDS011;42155;53.096;23.226;2023-02-03T07:25:29;7.20;;;3.20;;
56242;SDS011;42155;53.096;23.226;2023-02-03T07:27:30;8.18;;;3.30;;
56242;SDS011;42155;53.096;23.226;2023-02-03T07:29:30;8.82;;;3.72;;
56242;SDS011;42155;53.096;23.226;2023-02-03T07:31:31;8.73;;;3.55;;
56242;SDS011;42155;53.096;23.226;2023-02-03T07:33:31;8.88;;;3.38;;
56242;SDS011;42155;53.096;23.226;2023-02-03T07:35:32;10.20;;;3.58;;
56242;SDS011;42155;53.096;23.226;2023-02-03T07:37:33;5.28;;;2.50;;
56242;SDS011;42155;53.096;23.226;2023-02-03T07:39:33;7.07;;;3.03;;
56242;SDS011;42155;53.096;23.226;2023-02-03T07:41:33;6.78;;;2.80;;
56242;SDS011;42155;53.096;23.226;2023-02-03T07:43:34;6.72;;;3.22;;
56242;SDS011;42155;53.096;23.226;2023-02-03T07:45:34;6.03;;;2.67;;
56242;SDS011;42155;53.096;23.226;2023-02-03T07:47:34;6.15;;;2.78;;
56242;SDS011;42155;53.096;23.226;2023-02-03T07:49:35;6.05;;;2.25;;
56242;SDS011;42155;53.096;23.226;2023-02-03T07:51:35;7.78;;;2.70;;
56242;SDS011;42155;53.096;23.226;2023-02-03T07:53:35;6.20;;;3.17;;
56242;SDS011;42155;53.096;23.226;2023-02-03T07:55:39;7.35;;;3.22;;
56242;SDS011;42155;53.096;23.226;2023-02-03T07:57:39;7.00;;;3.17;;
56242;SDS011;42155;53.096;23.226;2023-02-03T07:59:40;10.07;;;3.80;;
56242;SDS011;42155;53.096;23.226;2023-02-03T08:01:40;12.95;;;4.25;;
56242;SDS011;42155;53.096;23.226;2023-02-03T08:03:41;10.85;;;3.70;;
56242;SDS011;42155;53.096;23.226;2023-02-03T08:05:41;12.70;;;4.20;;
56242;SDS011;42155;53.096;23.226;2023-02-03T08:07:42;8.85;;;4.00;;
56242;SDS011;42155;53.096;23.226;2023-02-03T08:09:42;8.63;;;3.13;;
56242;SDS011;42155;53.096;23.226;2023-02-03T08:11:42;6.45;;;2.70;;
56242;SDS011;42155;53.096;23.226;2023-02-03T08:13:43;5.18;;;2.58;;
56242;SDS011;42155;53.096;23.226;2023-02-03T08:15:43;4.20;;;2.63;;
56242;SDS011;42155;53.096;23.226;2023-02-03T08:17:44;7.75;;;2.92;;
56242;SDS011;42155;53.096;23.226;2023-02-03T08:19:44;6.70;;;2.90;;
56242;SDS011;42155;53.096;23.226;2023-02-03T08:21:45;7.10;;;3.60;;
56242;SDS011;42155;53.096;23.226;2023-02-03T08:23:45;6.68;;;3.20;;
56242;SDS011;42155;53.096;23.226;2023-02-03T08:25:49;8.95;;;3.95;;
56242;SDS011;42155;53.096;23.226;2023-02-03T08:27:51;9.93;;;4.25;;
56242;SDS011;42155;53.096;23.226;2023-02-03T08:29:51;8.43;;;3.85;;
56242;SDS011;42155;53.096;23.226;2023-02-03T08:31:52;8.93;;;4.13;;
56242;SDS011;42155;53.096;23.226;2023-02-03T08:33:52;11.15;;;4.85;;
56242;SDS011;42155;53.096;23.226;2023-02-03T08:35:52;21.95;;;7.78;;
56242;SDS011;42155;53.096;23.226;2023-02-03T08:37:53;16.00;;;6.05;;
56242;SDS011;42155;53.096;23.226;2023-02-03T08:39:53;11.10;;;5.03;;
56242;SDS011;42155;53.096;23.226;2023-02-03T08:41:54;9.63;;;4.18;;
56242;SDS011;42155;53.096;23.226;2023-02-03T08:43:54;8.05;;;4.00;;
56242;SDS011;42155;53.096;23.226;2023-02-03T08:45:54;6.45;;;3.65;;
56242;SDS011;42155;53.096;23.226;2023-02-03T08:47:55;6.82;;;3.17;;
56242;SDS011;42155;53.096;23.226;2023-02-03T08:49:56;7.65;;;3.35;;
56242;SDS011;42155;53.096;23.226;2023-02-03T08:51:57;9.60;;;3.45;;
56242;SDS011;42155;53.096;23.226;2023-02-03T08:53:58;8.93;;;3.50;;
56242;SDS011;42155;53.096;23.226;2023-02-03T08:55:58;9.05;;;3.90;;
56242;SDS011;42155;53.096;23.226;2023-02-03T08:57:58;14.30;;;5.45;;
56242;SDS011;42155;53.096;23.226;2023-02-03T08:59:59;17.55;;;6.63;;
56242;SDS011;42155;53.096;23.226;2023-02-03T09:01:59;27.50;;;10.15;;
56242;SDS011;42155;53.096;23.226;2023-02-03T09:04:00;40.28;;;13.80;;
56242;SDS011;42155;53.096;23.226;2023-02-03T09:06:00;33.08;;;11.40;;
56242;SDS011;42155;53.096;23.226;2023-02-03T09:08:01;23.70;;;7.97;;
56242;SDS011;42155;53.096;23.226;2023-02-03T09:10:02;20.63;;;7.72;;
56242;SDS011;42155;53.096;23.226;2023-02-03T09:12:04;14.27;;;5.75;;
56242;SDS011;42155;53.096;23.226;2023-02-03T09:14:05;13.10;;;5.00;;
56242;SDS011;42155;53.096;23.226;2023-02-03T09:16:06;19.90;;;7.82;;
56242;SDS011;42155;53.096;23.226;2023-02-03T09:18:06;17.70;;;7.18;;
56242;SDS011;42155;53.096;23.226;2023-02-03T09:20:07;17.75;;;7.93;;
56242;SDS011;42155;53.096;23.226;2023-02-03T09:22:08;24.98;;;9.98;;
56242;SDS011;42155;53.096;23.226;2023-02-03T09:24:08;41.17;;;19.10;;
56242;SDS011;42155;53.096;23.226;2023-02-03T09:26:12;29.90;;;14.10;;
56242;SDS011;42155;53.096;23.226;2023-02-03T09:28:13;27.00;;;14.60;;
56242;SDS011;42155;53.096;23.226;2023-02-03T09:30:13;19.83;;;9.68;;
56242;SDS011;42155;53.096;23.226;2023-02-03T09:32:14;13.02;;;7.60;;
56242;SDS011;42155;53.096;23.226;2023-02-03T09:34:14;10.55;;;5.78;;
56242;SDS011;42155;53.096;23.226;2023-02-03T09:36:15;11.20;;;6.18;;
56242;SDS011;42155;53.096;23.226;2023-02-03T09:38:15;12.85;;;6.57;;
56242;SDS011;42155;53.096;23.226;2023-02-03T09:40:17;15.30;;;6.95;;
56242;SDS011;42155;53.096;23.226;2023-02-03T09:42:35;14.57;;;6.38;;
56242;SDS011;42155;53.096;23.226;2023-02-03T09:47:10;17.75;;;7.50;;
56242;SDS011;42155;53.096;23.226;2023-02-03T09:49:26;11.57;;;6.25;;
56242;SDS011;42155;53.096;23.226;2023-02-03T09:51:35;9.35;;;4.32;;
56242;SDS011;42155;53.096;23.226;2023-02-03T09:53:41;7.95;;;4.50;;
56242;SDS011;42155;53.096;23.226;2023-02-03T09:55:47;7.63;;;3.97;;
56242;SDS011;42155;53.096;23.226;2023-02-03T09:57:48;7.32;;;4.18;;
56242;SDS011;42155;53.096;23.226;2023-02-03T09:59:58;7.30;;;3.83;;
56242;SDS011;42155;53.096;23.226;2023-02-03T10:02:02;7.93;;;3.47;;
56242;SDS011;42155;53.096;23.226;2023-02-03T10:04:33;4.53;;;2.80;;
56242;SDS011;42155;53.096;23.226;2023-02-03T10:06:40;3.75;;;2.42;;
56242;SDS011;42155;53.096;23.226;2023-02-03T10:09:04;5.82;;;2.97;;
56242;SDS011;42155;53.096;23.226;2023-02-03T10:18:50;9.63;;;3.85;;
56242;SDS011;42155;53.096;23.226;2023-02-03T10:20:53;8.38;;;5.30;;
56242;SDS011;42155;53.096;23.226;2023-02-03T10:22:58;15.02;;;4.35;;
56242;SDS011;42155;53.096;23.226;2023-02-03T10:25:06;6.78;;;3.67;;
56242;SDS011;42155;53.096;23.226;2023-02-03T10:27:14;4.90;;;3.58;;
56242;SDS011;42155;53.096;23.226;2023-02-03T10:29:19;7.15;;;3.30;;
56242;SDS011;42155;53.096;23.226;2023-02-03T10:31:26;7.88;;;3.70;;
56242;SDS011;42155;53.096;23.226;2023-02-03T10:33:31;8.07;;;4.20;;
56242;SDS011;42155;53.096;23.226;2023-02-03T10:35:35;8.77;;;4.13;;
56242;SDS011;42155;53.096;23.226;2023-02-03T10:37:52;7.10;;;3.42;;
56242;SDS011;42155;53.096;23.226;2023-02-03T10:39:57;6.53;;;3.63;;
56242;SDS011;42155;53.096;23.226;2023-02-03T10:42:00;6.05;;;3.50;;
56242;SDS011;42155;53.096;23.226;2023-02-03T10:44:04;7.25;;;3.47;;
56242;SDS011;42155;53.096;23.226;2023-02-03T10:46:06;9.85;;;4.10;;
56242;SDS011;42155;53.096;23.226;2023-02-03T10:48:10;10.95;;;4.80;;
56242;SDS011;42155;53.096;23.226;2023-02-03T10:52:32;8.45;;;4.30;;
56242;SDS011;42155;53.096;23.226;2023-02-03T10:54:34;5.93;;;3.10;;
56242;SDS011;42155;53.096;23.226;2023-02-03T10:56:35;6.32;;;3.40;;
56242;SDS011;42155;53.096;23.226;2023-02-03T10:58:38;4.15;;;2.80;;
56242;SDS011;42155;53.096;23.226;2023-02-03T11:00:45;4.93;;;2.80;;
56242;SDS011;42155;53.096;23.226;2023-02-03T11:02:58;6.05;;;2.72;;
56242;SDS011;42155;53.096;23.226;2023-02-03T11:07:23;3.33;;;2.40;;
56242;SDS011;42155;53.096;23.226;2023-02-03T11:09:30;3.92;;;2.28;;
56242;SDS011;42155;53.096;23.226;2023-02-03T11:11:32;4.47;;;2.70;;
56242;SDS011;42155;53.096;23.226;2023-02-03T11:13:32;5.43;;;3.10;;
56242;SDS011;42155;53.096;23.226;2023-02-03T11:15:33;6.00;;;3.35;;
56242;SDS011;42155;53.096;23.226;2023-02-03T11:17:33;16.58;;;5.80;;
56242;SDS011;42155;53.096;23.226;2023-02-03T11:19:35;8.50;;;4.20;;
56242;SDS011;42155;53.096;23.226;2023-02-03T11:23:43;11.00;;;4.72;;
56242;SDS011;42155;53.096;23.226;2023-02-03T11:25:50;8.25;;;4.30;;
56242;SDS011;42155;53.096;23.226;2023-02-03T11:27:51;8.60;;;4.38;;
56242;SDS011;42155;53.096;23.226;2023-02-03T11:30:08;12.05;;;4.85;;
56242;SDS011;42155;53.096;23.226;2023-02-03T11:32:16;9.65;;;3.95;;
56242;SDS011;42155;53.096;23.226;2023-02-03T11:34:30;6.35;;;3.58;;
56242;SDS011;42155;53.096;23.226;2023-02-03T11:36:33;6.22;;;3.60;;
56242;SDS011;42155;53.096;23.226;2023-02-03T11:38:34;5.63;;;3.60;;
56242;SDS011;42155;53.096;23.226;2023-02-03T11:40:34;7.25;;;3.80;;
56242;SDS011;42155;53.096;23.226;2023-02-03T11:42:35;6.05;;;3.70;;
56242;SDS011;42155;53.096;23.226;2023-02-03T11:44:38;10.05;;;5.10;;
56242;SDS011;42155;53.096;23.226;2023-02-03T11:46:38;7.70;;;4.65;;
56242;SDS011;42155;53.096;23.226;2023-02-03T11:56:40;7.40;;;4.07;;
56242;SDS011;42155;53.096;23.226;2023-02-03T12:01:14;5.50;;;3.55;;
56242;SDS011;42155;53.096;23.226;2023-02-03T12:06:12;8.10;;;4.20;;
56242;SDS011;42155;53.096;23.226;2023-02-03T12:13:33;8.82;;;3.85;;
56242;SDS011;42155;53.096;23.226;2023-02-03T12:16:00;11.20;;;4.67;;
56242;SDS011;42155;53.096;23.226;2023-02-03T12:22:55;8.60;;;3.60;;
56242;SDS011;42155;53.096;23.226;2023-02-03T12:27:19;5.70;;;3.10;;
56242;SDS011;42155;53.096;23.226;2023-02-03T12:29:40;7.07;;;3.50;;
56242;SDS011;42155;53.096;23.226;2023-02-03T12:33:49;5.40;;;3.03;;
56242;SDS011;42155;53.096;23.226;2023-02-03T12:36:05;7.30;;;3.67;;
56242;SDS011;42155;53.096;23.226;2023-02-03T12:38:16;6.35;;;3.22;;
56242;SDS011;42155;53.096;23.226;2023-02-03T12:42:43;5.20;;;2.70;;
56242;SDS011;42155;53.096;23.226;2023-02-03T12:44:59;4.75;;;2.80;;
56242;SDS011;42155;53.096;23.226;2023-02-03T12:47:16;5.38;;;2.90;;
56242;SDS011;42155;53.096;23.226;2023-02-03T12:51:39;7.03;;;2.58;;
56242;SDS011;42155;53.096;23.226;2023-02-03T12:53:47;7.20;;;3.10;;
56242;SDS011;42155;53.096;23.226;2023-02-03T12:55:55;6.38;;;2.97;;
56242;SDS011;42155;53.096;23.226;2023-02-03T12:58:01;6.57;;;3.00;;
56242;SDS011;42155;53.096;23.226;2023-02-03T13:02:20;4.80;;;2.63;;
56242;SDS011;42155;53.096;23.226;2023-02-03T13:06:42;5.50;;;2.55;;
56242;SDS011;42155;53.096;23.226;2023-02-03T13:09:04;4.50;;;2.30;;
56242;SDS011;42155;53.096;23.226;2023-02-03T13:11:39;3.97;;;2.40;;
56242;SDS011;42155;53.096;23.226;2023-02-03T13:13:48;5.60;;;2.92;;
56242;SDS011;42155;53.096;23.226;2023-02-03T13:15:53;5.15;;;2.75;;
56242;SDS011;42155;53.096;23.226;2023-02-03T13:18:01;6.25;;;3.03;;
56242;SDS011;42155;53.096;23.226;2023-02-03T13:20:14;6.50;;;2.95;;
56242;SDS011;42155;53.096;23.226;2023-02-03T13:22:18;5.55;;;3.17;;
56242;SDS011;42155;53.096;23.226;2023-02-03T13:24:24;6.20;;;3.30;;
56242;SDS011;42155;53.096;23.226;2023-02-03T13:26:43;5.78;;;3.35;;
56242;SDS011;42155;53.096;23.226;2023-02-03T13:29:17;7.70;;;3.47;;